createdAt,value
2022-11-04T00:00:16.793Z,9.21
2022-11-04T00:01:16.876Z,9.21
2022-11-04T00:02:17.063Z,9.19
2022-11-04T00:03:17.136Z,9.16
2022-11-04T00:04:17.280Z,9.15
2022-11-04T00:05:17.427Z,9.15
2022-11-04T00:06:17.557Z,9.13
2022-11-04T00:07:17.699Z,9.15
2022-11-04T00:08:17.851Z,9.15
2022-11-04T00:09:18.010Z,9.15
2022-11-04T00:10:18.154Z,9.16
2022-11-04T00:11:18.291Z,9.15
2022-11-04T00:12:18.441Z,9.16
2022-11-04T00:13:18.588Z,9.16
2022-11-04T00:14:18.745Z,9.16
2022-11-04T00:15:18.907Z,9.15
2022-11-04T00:16:19.048Z,9.16
2022-11-04T00:17:19.232Z,9.16
2022-11-04T00:18:19.360Z,9.15
2022-11-04T00:19:19.557Z,9.16
2022-11-04T00:20:19.727Z,9.15
2022-11-04T00:21:19.877Z,9.15
2022-11-04T00:22:20.037Z,9.18
2022-11-04T00:23:20.198Z,9.16
2022-11-04T00:24:20.367Z,9.15
2022-11-04T00:25:20.517Z,9.13
2022-11-04T00:26:20.662Z,9.12
2022-11-04T00:27:20.798Z,9.11
2022-11-04T00:28:20.945Z,9.08
2022-11-04T00:29:21.121Z,9.05
2022-11-04T00:30:21.267Z,9.03
2022-11-04T00:31:21.420Z,9.03
2022-11-04T00:32:21.563Z,9.03
2022-11-04T00:33:21.720Z,9.05
2022-11-04T00:34:21.874Z,9.11
2022-11-04T00:35:22.025Z,9.11
2022-11-04T00:36:22.164Z,9.12
2022-11-04T00:37:22.313Z,9.15
2022-11-04T00:38:22.453Z,9.13
2022-11-04T00:39:22.623Z,9.15
2022-11-04T00:40:22.787Z,9.15
2022-11-04T00:41:22.948Z,9.13
2022-11-04T00:42:23.100Z,9.12
2022-11-04T00:43:23.243Z,9.15
2022-11-04T00:44:23.444Z,9.12
2022-11-04T00:45:23.584Z,9.09
2022-11-04T00:46:23.726Z,9.11
2022-11-04T00:47:23.872Z,9.09
2022-11-04T00:48:24.017Z,9.08
2022-11-04T00:49:24.212Z,9.08
2022-11-04T00:50:24.358Z,9.08
2022-11-04T00:51:24.505Z,9.03
2022-11-04T00:52:24.651Z,9.08
2022-11-04T00:53:24.801Z,9.08
2022-11-04T00:54:24.978Z,9.11
2022-11-04T00:55:25.167Z,9.11
2022-11-04T00:56:25.314Z,9.12
2022-11-04T00:57:25.473Z,9.12
2022-11-04T00:58:25.619Z,9.13
2022-11-04T00:59:25.779Z,9.11
2022-11-04T01:00:25.923Z,9.09
2022-11-04T01:01:26.243Z,9.09
2022-11-04T01:02:33.530Z,9.08
2022-11-04T01:03:26.343Z,9.03
2022-11-04T01:04:26.521Z,9.02
2022-11-04T01:05:26.657Z,9.03
2022-11-04T01:06:26.819Z,9.03
2022-11-04T01:07:26.957Z,9.03
2022-11-04T01:08:27.106Z,9.03
2022-11-04T01:09:27.296Z,9.05
2022-11-04T01:10:27.456Z,9.03
2022-11-04T01:11:27.633Z,9.05
2022-11-04T01:12:27.804Z,9.03
2022-11-04T01:13:28.338Z,8.99
2022-11-04T01:14:28.150Z,8.96
2022-11-04T01:15:28.321Z,8.97
2022-11-04T01:17:28.618Z,8.99
2022-11-04T01:18:28.779Z,8.99
2022-11-04T01:19:28.966Z,8.99
2022-11-04T01:20:29.113Z,8.96
2022-11-04T01:21:29.282Z,8.96
2022-11-04T01:22:29.438Z,8.95
2022-11-04T01:23:29.604Z,8.93
2022-11-04T01:24:29.762Z,8.95
2022-11-04T01:25:29.840Z,8.96
2022-11-04T01:26:29.996Z,8.95
2022-11-04T01:27:30.151Z,8.95
2022-11-04T01:28:30.306Z,8.97
2022-11-04T01:29:30.483Z,8.95
2022-11-04T01:30:30.656Z,8.97
2022-11-04T01:31:30.792Z,8.97
2022-11-04T01:32:30.946Z,8.96
2022-11-04T01:33:31.100Z,8.95
2022-11-04T01:34:31.263Z,8.93
2022-11-04T01:35:31.411Z,8.90
2022-11-04T01:36:31.565Z,8.92
2022-11-04T01:37:31.699Z,8.90
2022-11-04T01:38:31.859Z,8.89
2022-11-04T01:39:32.018Z,8.89
2022-11-04T01:40:32.167Z,8.89
2022-11-04T01:41:32.324Z,8.90
2022-11-04T01:42:32.473Z,8.90
2022-11-04T01:43:32.625Z,8.90
2022-11-04T01:44:32.870Z,8.93
2022-11-04T01:45:32.902Z,8.90
2022-11-04T01:46:33.049Z,8.92
2022-11-04T01:47:33.198Z,8.90
2022-11-04T01:48:33.338Z,8.90
2022-11-04T01:49:33.635Z,8.92
2022-11-04T01:50:33.656Z,8.93
2022-11-04T01:51:33.807Z,8.95
2022-11-04T01:52:33.952Z,8.97
2022-11-04T01:53:34.107Z,8.99
2022-11-04T01:54:34.260Z,8.99
2022-11-04T01:55:34.415Z,8.99
2022-11-04T01:56:34.569Z,8.99
2022-11-04T01:57:34.697Z,9.00
2022-11-04T01:58:34.844Z,9.00
2022-11-04T01:59:35.007Z,9.00
2022-11-04T02:00:35.144Z,9.00
2022-11-04T02:01:35.415Z,9.00
2022-11-04T02:02:35.494Z,9.00
2022-11-04T02:03:35.533Z,8.99
2022-11-04T02:04:35.730Z,8.99
2022-11-04T02:05:35.877Z,8.99
2022-11-04T02:06:36.047Z,9.00
2022-11-04T02:07:36.210Z,8.99
2022-11-04T02:08:36.350Z,8.96
2022-11-04T02:09:36.524Z,8.96
2022-11-04T02:10:36.680Z,8.95
2022-11-04T02:11:36.861Z,8.95
2022-11-04T02:12:37.039Z,8.95
2022-11-04T02:13:37.279Z,8.93
2022-11-04T02:14:37.370Z,8.96
2022-11-04T02:15:37.645Z,8.96
2022-11-04T02:16:37.689Z,8.99
2022-11-04T02:17:37.840Z,9.00
2022-11-04T02:18:38.110Z,9.00
2022-11-04T02:19:38.201Z,8.99
2022-11-04T02:20:38.363Z,8.99
2022-11-04T02:21:38.538Z,8.99
2022-11-04T02:22:38.699Z,9.00
2022-11-04T02:23:38.867Z,8.99
2022-11-04T02:24:39.077Z,8.99
2022-11-04T02:25:39.122Z,9.00
2022-11-04T02:26:39.291Z,9.00
2022-11-04T02:27:39.438Z,9.00
2022-11-04T02:28:39.629Z,8.97
2022-11-04T02:29:39.896Z,9.00
2022-11-04T02:30:39.938Z,8.99
2022-11-04T02:31:40.117Z,8.99
2022-11-04T02:32:40.277Z,8.99
2022-11-04T02:33:40.432Z,8.96
2022-11-04T02:34:41.545Z,8.97
2022-11-04T02:35:40.702Z,8.99
2022-11-04T02:36:40.927Z,9.00
2022-11-04T02:37:41.009Z,8.99
2022-11-04T02:38:41.157Z,8.99
2022-11-04T02:39:41.939Z,8.96
2022-11-04T02:40:41.461Z,8.96
2022-11-04T02:41:41.601Z,8.93
2022-11-04T02:42:41.764Z,8.95
2022-11-04T02:43:41.922Z,8.93
2022-11-04T02:44:42.106Z,8.93
2022-11-04T02:45:42.263Z,8.92
2022-11-04T02:46:42.429Z,8.92
2022-11-04T02:47:42.594Z,8.93
2022-11-04T02:48:42.760Z,8.95
2022-11-04T02:49:42.923Z,8.92
2022-11-04T02:50:43.086Z,8.95
2022-11-04T02:51:43.239Z,8.96
2022-11-04T02:52:48.569Z,8.96
2022-11-04T02:53:44.496Z,8.96
2022-11-04T02:54:43.677Z,8.96
2022-11-04T02:55:43.821Z,8.96
2022-11-04T02:56:43.995Z,8.95
2022-11-04T02:57:44.150Z,8.96
2022-11-04T02:58:44.304Z,8.95
2022-11-04T02:59:44.479Z,8.97
2022-11-04T03:00:44.645Z,8.99
2022-11-04T03:01:44.901Z,8.99
2022-11-04T03:02:45.012Z,8.97
2022-11-04T03:03:45.179Z,9.00
2022-11-04T03:04:45.351Z,8.97
2022-11-04T03:05:45.498Z,9.00
2022-11-04T03:06:45.658Z,9.02
2022-11-04T03:07:45.816Z,9.05
2022-11-04T03:08:45.967Z,9.08
2022-11-04T03:09:46.136Z,9.08
2022-11-04T03:10:46.297Z,9.03
2022-11-04T03:11:46.463Z,9.03
2022-11-04T03:12:46.615Z,9.02
2022-11-04T03:13:46.765Z,9.08
2022-11-04T03:14:46.958Z,9.08
2022-11-04T03:15:47.120Z,9.09
2022-11-04T03:16:47.285Z,9.12
2022-11-04T03:17:47.430Z,9.11
2022-11-04T03:18:47.586Z,9.12
2022-11-04T03:19:47.764Z,9.12
2022-11-04T03:20:47.923Z,9.13
2022-11-04T03:21:48.071Z,9.15
2022-11-04T03:22:48.266Z,9.18
2022-11-04T03:23:48.413Z,9.16
2022-11-04T03:24:48.593Z,9.19
2022-11-04T03:25:48.733Z,9.19
2022-11-04T03:26:48.899Z,9.19
2022-11-04T03:27:49.074Z,9.19
2022-11-04T03:28:49.224Z,9.21
2022-11-04T03:29:49.425Z,9.24
2022-11-04T03:30:49.575Z,9.22
2022-11-04T03:31:49.750Z,9.26
2022-11-04T03:32:49.919Z,9.26
2022-11-04T03:33:50.081Z,9.30
2022-11-04T03:34:50.253Z,9.29
2022-11-04T03:35:50.404Z,9.29
2022-11-04T03:36:50.563Z,9.27
2022-11-04T03:37:50.712Z,9.26
2022-11-04T03:38:50.880Z,9.26
2022-11-04T03:39:51.057Z,9.26
2022-11-04T03:40:51.227Z,9.26
2022-11-04T03:41:51.388Z,9.26
2022-11-04T03:42:51.544Z,9.26
2022-11-04T03:43:51.705Z,9.26
2022-11-04T03:44:51.880Z,9.24
2022-11-04T03:45:52.037Z,9.27
2022-11-04T03:46:52.216Z,9.26
2022-11-04T03:47:52.369Z,9.27
2022-11-04T03:48:52.528Z,9.27
2022-11-04T03:49:52.699Z,9.29
2022-11-04T03:50:52.860Z,9.30
2022-11-04T03:51:53.008Z,9.31
2022-11-04T03:52:53.168Z,9.30
2022-11-04T03:53:53.320Z,9.33
2022-11-04T03:54:53.494Z,9.31
2022-11-04T03:55:53.645Z,9.33
2022-11-04T03:56:53.805Z,9.34
2022-11-04T03:57:53.958Z,9.33
2022-11-04T03:58:54.138Z,9.34
2022-11-04T03:59:54.305Z,9.36
2022-11-04T04:00:54.514Z,9.36
2022-11-04T04:01:54.704Z,9.34
2022-11-04T04:02:54.768Z,9.34
2022-11-04T04:03:54.914Z,9.33
2022-11-04T04:04:55.109Z,9.33
2022-11-04T04:05:55.249Z,9.31
2022-11-04T04:06:55.330Z,9.33
2022-11-04T04:07:55.485Z,9.33
2022-11-04T04:08:55.644Z,9.31
2022-11-04T04:09:55.847Z,9.33
2022-11-04T04:10:55.903Z,9.30
2022-11-04T04:11:56.062Z,9.30
2022-11-04T04:12:56.210Z,9.30
2022-11-04T04:13:56.372Z,9.31
2022-11-04T04:14:56.548Z,9.30
2022-11-04T04:15:56.728Z,9.29
2022-11-04T04:16:56.921Z,9.29
2022-11-04T04:17:57.076Z,9.29
2022-11-04T04:18:58.656Z,9.30
2022-11-04T04:19:57.425Z,9.30
2022-11-04T04:20:57.564Z,9.30
2022-11-04T04:21:57.759Z,9.30
2022-11-04T04:22:57.901Z,9.30
2022-11-04T04:23:58.071Z,9.31
2022-11-04T04:24:58.292Z,9.34
2022-11-04T04:25:58.334Z,9.34
2022-11-04T04:26:58.503Z,9.34
2022-11-04T04:27:58.659Z,9.37
2022-11-04T04:28:58.819Z,9.37
2022-11-04T04:29:58.987Z,9.37
2022-11-04T04:31:00.435Z,9.39
2022-11-04T04:31:59.329Z,9.39
2022-11-04T04:33:01.999Z,9.40
2022-11-04T04:33:59.572Z,9.39
2022-11-04T04:34:59.724Z,9.42
2022-11-04T04:35:59.873Z,9.40
2022-11-04T04:37:00.099Z,9.42
2022-11-04T04:38:00.155Z,9.44
2022-11-04T04:39:00.328Z,9.42
2022-11-04T04:40:00.516Z,9.44
2022-11-04T04:41:00.679Z,9.44
2022-11-04T04:42:00.837Z,9.45
2022-11-04T04:43:00.997Z,9.47
2022-11-04T04:44:01.156Z,9.47
2022-11-04T04:45:01.335Z,9.48
2022-11-04T04:46:01.493Z,9.48
2022-11-04T04:47:01.690Z,9.47
2022-11-04T04:48:01.742Z,9.44
2022-11-04T04:49:01.908Z,9.40
2022-11-04T04:50:02.122Z,9.42
2022-11-04T04:51:02.248Z,9.44
2022-11-04T04:52:02.406Z,9.44
2022-11-04T04:53:02.573Z,9.44
2022-11-04T04:54:02.727Z,9.42
2022-11-04T04:55:02.913Z,9.39
2022-11-04T04:56:03.081Z,9.37
2022-11-04T04:57:03.237Z,9.39
2022-11-04T04:58:03.389Z,9.39
2022-11-04T04:59:03.551Z,9.39
2022-11-04T05:00:03.737Z,9.39
2022-11-04T05:01:03.842Z,9.37
2022-11-04T05:02:04.099Z,9.37
2022-11-04T05:03:04.090Z,9.36
2022-11-04T05:04:04.182Z,9.37
2022-11-04T05:05:04.428Z,9.42
2022-11-04T05:06:04.449Z,9.42
2022-11-04T05:07:04.638Z,9.42
2022-11-04T05:08:04.794Z,9.42
2022-11-04T05:09:04.958Z,9.42
2022-11-04T05:10:05.183Z,9.44
2022-11-04T05:11:05.310Z,9.48
2022-11-04T05:12:05.490Z,9.47
2022-11-04T05:13:05.668Z,9.47
2022-11-04T05:14:05.829Z,9.47
2022-11-04T05:15:06.023Z,9.49
2022-11-04T05:16:06.065Z,9.49
2022-11-04T05:17:06.217Z,9.52
2022-11-04T05:18:06.764Z,9.55
2022-11-04T05:19:06.587Z,9.56
2022-11-04T05:20:06.789Z,9.58
2022-11-04T05:21:06.946Z,9.59
2022-11-04T05:22:07.116Z,9.59
2022-11-04T05:23:07.266Z,9.59
2022-11-04T05:24:07.430Z,9.59
2022-11-04T05:25:07.609Z,9.63
2022-11-04T05:26:07.774Z,9.62
2022-11-04T05:27:07.961Z,9.62
2022-11-04T05:28:08.443Z,9.62
2022-11-04T05:29:08.335Z,9.58
2022-11-04T05:30:08.450Z,9.62
2022-11-04T05:31:08.507Z,9.63
2022-11-04T05:32:08.675Z,9.62
2022-11-04T05:33:09.174Z,9.59
2022-11-04T05:34:09.056Z,9.58
2022-11-04T05:35:09.138Z,9.56
2022-11-04T05:36:09.234Z,9.58
2022-11-04T05:37:09.288Z,9.55
2022-11-04T05:38:09.457Z,9.55
2022-11-04T05:39:09.630Z,9.55
2022-11-04T05:40:09.817Z,9.56
2022-11-04T05:41:10.014Z,9.58
2022-11-04T05:42:10.080Z,9.55
2022-11-04T05:43:10.643Z,9.55
2022-11-04T05:44:10.354Z,9.55
2022-11-04T05:45:10.532Z,9.58
2022-11-04T05:46:10.709Z,9.58
2022-11-04T05:47:10.930Z,9.59
2022-11-04T05:48:11.000Z,9.59
2022-11-04T05:49:11.171Z,9.59
2022-11-04T05:50:11.364Z,9.59
2022-11-04T05:51:11.543Z,9.59
2022-11-04T05:52:11.721Z,9.59
2022-11-04T05:53:12.346Z,9.62
2022-11-04T05:54:12.012Z,9.62
2022-11-04T05:55:12.190Z,9.59
2022-11-04T05:56:12.358Z,9.59
2022-11-04T05:57:12.508Z,9.55
2022-11-04T05:58:12.689Z,9.55
2022-11-04T05:59:12.849Z,9.58
2022-11-04T06:00:13.027Z,9.56
2022-11-04T06:01:13.310Z,9.58
2022-11-04T06:02:13.384Z,9.58
2022-11-04T06:03:16.239Z,9.59
2022-11-04T06:04:13.600Z,9.62
2022-11-04T06:05:13.805Z,9.58
2022-11-04T06:06:13.845Z,9.55
2022-11-04T06:07:13.994Z,9.56
2022-11-04T06:08:14.212Z,9.55
2022-11-04T06:09:14.277Z,9.56
2022-11-04T06:10:14.462Z,9.58
2022-11-04T06:11:14.622Z,9.58
2022-11-04T06:12:14.781Z,9.58
2022-11-04T06:13:14.944Z,9.58
2022-11-04T06:14:18.705Z,9.62
2022-11-04T06:15:15.623Z,9.63
2022-11-04T06:16:15.339Z,9.64
2022-11-04T06:17:15.576Z,9.67
2022-11-04T06:18:15.619Z,9.70
2022-11-04T06:19:16.346Z,9.69
2022-11-04T06:20:15.953Z,9.70
2022-11-04T06:21:16.103Z,9.72
2022-11-04T06:22:16.252Z,9.70
2022-11-04T06:23:16.422Z,9.72
2022-11-04T06:24:16.576Z,9.72
2022-11-04T06:25:16.773Z,9.76
2022-11-04T06:26:18.227Z,9.74
2022-11-04T06:27:16.970Z,9.74
2022-11-04T06:28:17.181Z,9.74
2022-11-04T06:29:17.228Z,9.77
2022-11-04T06:30:17.379Z,9.81
2022-11-04T06:31:17.531Z,9.84
2022-11-04T06:32:17.670Z,9.87
2022-11-04T06:33:17.830Z,9.90
2022-11-04T06:34:18.076Z,9.88
2022-11-04T06:35:18.112Z,9.88
2022-11-04T06:36:18.253Z,9.88
2022-11-04T06:37:18.405Z,9.88
2022-11-04T06:38:18.561Z,9.88
2022-11-04T06:39:18.720Z,9.90
2022-11-04T06:40:18.886Z,9.90
2022-11-04T06:41:19.046Z,9.92
2022-11-04T06:42:19.207Z,9.95
2022-11-04T06:43:19.369Z,9.94
2022-11-04T06:44:19.523Z,9.99
2022-11-04T06:45:19.709Z,10.00
2022-11-04T06:46:19.885Z,10.02
2022-11-04T06:47:24.571Z,10.06
2022-11-04T06:48:21.227Z,10.09
2022-11-04T06:49:20.378Z,10.13
2022-11-04T06:50:20.541Z,10.17
2022-11-04T06:51:20.703Z,10.20
2022-11-04T06:52:20.862Z,10.23
2022-11-04T06:53:21.027Z,10.25
2022-11-04T06:54:21.195Z,10.25
2022-11-04T06:55:21.392Z,10.25
2022-11-04T06:56:21.445Z,10.28
2022-11-04T06:57:21.590Z,10.33
2022-11-04T06:58:21.727Z,10.31
2022-11-04T06:59:21.898Z,10.34
2022-11-04T07:00:22.061Z,10.34
2022-11-04T07:01:22.652Z,10.38
2022-11-04T07:02:22.441Z,10.39
2022-11-04T07:03:22.444Z,10.41
2022-11-04T07:05:19.894Z,10.41
2022-11-04T07:06:19.955Z,10.43
2022-11-04T07:07:20.142Z,10.43
2022-11-04T07:08:20.349Z,10.43
2022-11-04T07:09:20.446Z,10.41
2022-11-04T07:10:20.618Z,10.39
2022-11-04T07:11:20.860Z,10.41
2022-11-04T07:12:20.887Z,10.39
2022-11-04T07:13:21.066Z,10.39
2022-11-04T07:14:21.254Z,10.39
2022-11-04T07:15:27.114Z,10.39
2022-11-04T07:16:22.625Z,10.41
2022-11-04T07:17:21.823Z,10.41
2022-11-04T07:18:21.996Z,10.38
2022-11-04T07:19:22.146Z,10.39
2022-11-04T07:20:22.313Z,10.41
2022-11-04T07:21:22.512Z,10.45
2022-11-04T07:22:22.770Z,10.45
2022-11-04T07:23:22.932Z,10.48
2022-11-04T07:24:23.070Z,10.53
2022-11-04T07:25:23.241Z,10.58
2022-11-04T07:26:23.270Z,10.61
2022-11-04T07:27:23.334Z,10.62
2022-11-04T07:28:23.501Z,10.58
2022-11-04T07:29:23.670Z,10.59
2022-11-04T07:30:23.899Z,10.61
2022-11-04T07:31:24.222Z,10.65
2022-11-04T07:32:24.204Z,10.69
2022-11-04T07:33:24.239Z,10.75
2022-11-04T07:34:24.539Z,10.76
2022-11-04T07:35:24.603Z,10.75
2022-11-04T07:36:24.799Z,10.76
2022-11-04T07:37:24.858Z,10.76
2022-11-04T07:38:25.000Z,10.77
2022-11-04T07:39:25.215Z,10.76
2022-11-04T07:40:25.665Z,10.80
2022-11-04T07:41:25.698Z,10.82
2022-11-04T07:42:25.701Z,10.87
2022-11-04T07:43:25.718Z,10.90
2022-11-04T07:44:26.051Z,10.89
2022-11-04T07:45:25.978Z,10.89
2022-11-04T07:46:26.168Z,10.90
2022-11-04T07:47:26.361Z,11.00
2022-11-04T07:48:26.518Z,11.08
2022-11-04T07:49:26.718Z,11.16
2022-11-04T07:50:26.926Z,11.20
2022-11-04T07:51:26.970Z,11.22
2022-11-04T07:52:27.029Z,11.27
2022-11-04T07:53:27.183Z,11.35
2022-11-04T07:54:27.344Z,11.41
2022-11-04T07:55:27.491Z,11.41
2022-11-04T07:56:27.678Z,11.40
2022-11-04T07:57:27.844Z,11.43
2022-11-04T07:58:28.009Z,11.48
2022-11-04T07:59:28.212Z,11.51
2022-11-04T08:00:28.322Z,11.52
2022-11-04T08:01:29.139Z,11.48
2022-11-04T08:02:33.962Z,11.43
2022-11-04T08:03:29.849Z,11.40
2022-11-04T08:04:28.923Z,11.41
2022-11-04T08:05:29.082Z,11.40
2022-11-04T08:06:29.302Z,11.41
2022-11-04T08:07:29.366Z,11.40
2022-11-04T08:08:29.558Z,11.43
2022-11-04T08:09:29.712Z,11.48
2022-11-04T08:10:29.883Z,11.52
2022-11-04T08:11:30.094Z,11.52
2022-11-04T08:12:30.208Z,11.48
2022-11-04T08:13:30.259Z,11.49
2022-11-04T08:14:30.414Z,11.56
2022-11-04T08:15:30.562Z,11.63
2022-11-04T08:16:34.316Z,11.60
2022-11-04T08:17:30.877Z,11.70
2022-11-04T08:18:31.121Z,11.71
2022-11-04T08:19:31.180Z,11.73
2022-11-04T08:20:31.331Z,11.68
2022-11-04T08:21:31.485Z,11.70
2022-11-04T08:22:33.132Z,11.73
2022-11-04T08:23:31.826Z,11.70
2022-11-04T08:24:32.001Z,11.68
2022-11-04T08:25:32.151Z,11.60
2022-11-04T08:26:32.308Z,11.60
2022-11-04T08:27:32.416Z,11.60
2022-11-04T08:28:32.582Z,11.60
2022-11-04T08:29:32.762Z,11.63
2022-11-04T08:30:32.788Z,11.65
2022-11-04T08:31:32.937Z,11.65
2022-11-04T08:32:33.073Z,11.65
2022-11-04T08:33:33.227Z,11.63
2022-11-04T08:34:33.363Z,11.63
2022-11-04T08:35:38.329Z,11.65
2022-11-04T08:36:34.651Z,11.65
2022-11-04T08:37:33.787Z,11.68
2022-11-04T08:38:34.451Z,11.68
2022-11-04T08:39:34.069Z,11.68
2022-11-04T08:40:34.102Z,11.70
2022-11-04T08:41:34.259Z,11.68
2022-11-04T08:42:34.399Z,11.68
2022-11-04T08:43:34.555Z,11.70
2022-11-04T08:44:34.705Z,11.71
2022-11-04T08:45:34.839Z,11.73
2022-11-04T08:46:35.016Z,11.74
2022-11-04T08:47:35.147Z,11.78
2022-11-04T08:48:35.279Z,11.83
2022-11-04T08:49:35.446Z,11.83
2022-11-04T08:50:35.678Z,11.86
2022-11-04T08:51:35.698Z,11.88
2022-11-04T08:52:35.842Z,11.88
2022-11-04T08:53:36.140Z,11.85
2022-11-04T08:54:36.185Z,11.86
2022-11-04T08:55:36.309Z,11.86
2022-11-04T08:56:36.469Z,11.89
2022-11-04T08:57:36.699Z,11.88
2022-11-04T08:58:36.745Z,11.88
2022-11-04T08:59:36.911Z,11.91
2022-11-04T09:00:37.055Z,11.93
2022-11-04T09:01:37.253Z,11.93
2022-11-04T09:02:37.552Z,11.89
2022-11-04T09:03:37.501Z,11.89
2022-11-04T09:04:37.542Z,11.85
2022-11-04T09:05:37.673Z,11.83
2022-11-04T09:06:37.866Z,11.81
2022-11-04T09:07:37.993Z,11.83
2022-11-04T09:08:38.122Z,11.81
2022-11-04T09:09:38.268Z,11.86
2022-11-04T09:10:38.409Z,11.85
2022-11-04T09:11:38.560Z,11.83
2022-11-04T09:12:38.705Z,11.81
2022-11-04T09:13:39.830Z,11.81
2022-11-04T09:14:38.994Z,11.83
2022-11-04T09:15:39.137Z,11.85
2022-11-04T09:16:39.288Z,11.83
2022-11-04T09:17:39.417Z,11.81
2022-11-04T09:18:39.540Z,11.78
2022-11-04T09:19:39.692Z,11.78
2022-11-04T09:20:39.857Z,11.83
2022-11-04T09:21:40.002Z,11.83
2022-11-04T09:22:44.675Z,11.85
2022-11-04T09:23:41.266Z,11.85
2022-11-04T09:24:40.428Z,11.83
2022-11-04T09:25:40.587Z,11.86
2022-11-04T09:26:40.770Z,11.89
2022-11-04T09:27:40.938Z,11.86
2022-11-04T09:28:41.078Z,11.88
2022-11-04T09:29:41.237Z,11.86
2022-11-04T09:30:41.397Z,11.85
2022-11-04T09:31:41.561Z,11.86
2022-11-04T09:32:41.711Z,11.88
2022-11-04T09:33:41.935Z,11.89
2022-11-04T09:34:41.992Z,11.95
2022-11-04T09:35:42.156Z,11.97
2022-11-04T09:36:42.291Z,11.99
2022-11-04T09:37:42.444Z,12.00
2022-11-04T09:38:42.612Z,12.02
2022-11-04T09:39:42.727Z,12.00
2022-11-04T09:40:42.864Z,12.05
2022-11-04T09:41:43.066Z,12.02
2022-11-04T09:42:43.088Z,11.99
2022-11-04T09:43:43.230Z,12.05
2022-11-04T09:45:06.903Z,12.00
2022-11-04T09:45:44.498Z,12.00
2022-11-04T09:46:43.633Z,11.99
2022-11-04T09:47:43.769Z,12.02
2022-11-04T09:48:43.908Z,12.02
2022-11-04T09:49:44.077Z,12.02
2022-11-04T09:50:44.237Z,12.05
2022-11-04T09:51:59.744Z,11.99
2022-11-04T09:52:45.493Z,11.99
2022-11-04T09:53:44.643Z,12.03
2022-11-04T09:54:47.494Z,12.05
2022-11-04T09:55:45.015Z,12.03
2022-11-04T09:56:45.168Z,12.05
2022-11-04T09:57:45.398Z,12.02
2022-11-04T09:58:45.448Z,12.05
2022-11-04T09:59:45.585Z,12.05
2022-11-04T10:00:45.808Z,12.05
2022-11-04T10:01:45.988Z,12.03
2022-11-04T10:02:46.085Z,11.99
2022-11-04T10:03:46.190Z,11.99
2022-11-04T10:04:46.345Z,11.96
2022-11-04T10:05:46.481Z,11.95
2022-11-04T10:06:46.662Z,11.93
2022-11-04T10:07:46.828Z,11.91
2022-11-04T10:08:46.991Z,11.95
2022-11-04T10:09:47.131Z,11.91
2022-11-04T10:10:47.284Z,11.91
2022-11-04T10:11:47.449Z,11.89
2022-11-04T10:12:47.628Z,11.95
2022-11-04T10:13:47.814Z,11.93
2022-11-04T10:14:47.982Z,11.96
2022-11-04T10:15:48.188Z,11.91
2022-11-04T10:16:48.239Z,11.96
2022-11-04T10:17:48.407Z,11.93
2022-11-04T10:18:48.563Z,11.91
2022-11-04T10:19:48.723Z,11.91
2022-11-04T10:20:48.890Z,11.93
2022-11-04T10:21:49.057Z,11.93
2022-11-04T10:22:49.243Z,11.99
2022-11-04T10:23:49.397Z,11.99
2022-11-04T10:24:49.590Z,11.97
2022-11-04T10:25:49.729Z,11.89
2022-11-04T10:26:49.909Z,11.91
2022-11-04T10:27:50.048Z,11.95
2022-11-04T10:28:50.211Z,11.97
2022-11-04T10:29:50.375Z,11.95
2022-11-04T10:30:50.520Z,11.99
2022-11-04T10:31:50.763Z,11.96
2022-11-04T10:32:50.756Z,11.96
2022-11-04T10:33:50.910Z,11.91
2022-11-04T10:34:51.081Z,11.91
2022-11-04T10:35:51.229Z,11.91
2022-11-04T10:36:51.379Z,11.88
2022-11-04T10:37:51.534Z,11.89
2022-11-04T10:38:51.675Z,11.85
2022-11-04T10:39:51.812Z,11.83
2022-11-04T10:40:51.942Z,11.80
2022-11-04T10:41:52.094Z,11.80
2022-11-04T10:42:52.262Z,11.78
2022-11-04T10:43:52.402Z,11.81
2022-11-04T10:44:52.543Z,11.83
2022-11-04T10:45:52.701Z,11.81
2022-11-04T10:46:52.863Z,11.77
2022-11-04T10:47:52.996Z,11.80
2022-11-04T10:48:53.152Z,11.80
2022-11-04T10:50:14.435Z,11.77
2022-11-04T10:50:54.379Z,11.77
2022-11-04T10:51:53.545Z,11.74
2022-11-04T10:52:53.686Z,11.78
2022-11-04T10:53:53.838Z,11.80
2022-11-04T10:54:53.983Z,11.78
2022-11-04T10:55:54.140Z,11.73
2022-11-04T10:56:54.387Z,11.73
2022-11-04T10:57:54.492Z,11.73
2022-11-04T10:58:54.632Z,11.73
2022-11-04T10:59:54.850Z,11.73
2022-11-04T11:00:54.935Z,11.74
2022-11-04T11:01:55.194Z,11.74
2022-11-04T11:02:55.180Z,11.76
2022-11-04T11:03:55.351Z,11.76
2022-11-04T11:04:55.466Z,11.71
2022-11-04T11:05:55.639Z,11.70
2022-11-04T11:06:55.816Z,11.70
2022-11-04T11:07:55.958Z,11.70
2022-11-04T11:08:56.103Z,11.73
2022-11-04T11:09:56.253Z,11.76
2022-11-04T11:10:56.386Z,11.76
2022-11-04T11:11:56.557Z,11.73
2022-11-04T11:12:56.700Z,11.74
2022-11-04T11:13:56.866Z,11.73
2022-11-04T11:14:57.016Z,11.76
2022-11-04T11:15:57.164Z,11.76
2022-11-04T11:16:57.330Z,11.73
2022-11-04T11:17:57.476Z,11.73
2022-11-04T11:18:57.636Z,11.76
2022-11-04T11:19:57.776Z,11.77
2022-11-04T11:20:57.936Z,11.78
2022-11-04T11:21:58.142Z,11.80
2022-11-04T11:23:04.465Z,11.78
2022-11-04T11:23:59.382Z,11.78
2022-11-04T11:24:58.535Z,11.80
2022-11-04T11:25:58.708Z,11.77
2022-11-04T11:26:58.888Z,11.80
2022-11-04T11:27:59.058Z,11.76
2022-11-04T11:28:59.636Z,11.74
2022-11-04T11:29:59.373Z,11.78
2022-11-04T11:30:59.515Z,11.77
2022-11-04T11:31:59.690Z,11.78
2022-11-04T11:32:59.833Z,11.83
2022-11-04T11:33:59.967Z,11.80
2022-11-04T11:35:00.101Z,11.78
2022-11-04T11:36:00.337Z,11.83
2022-11-04T11:37:00.395Z,11.83
2022-11-04T11:38:00.533Z,11.83
2022-11-04T11:39:00.666Z,11.78
2022-11-04T11:40:00.802Z,11.78
2022-11-04T11:41:23.838Z,11.80
2022-11-04T11:42:02.051Z,11.81
2022-11-04T11:43:01.182Z,11.83
2022-11-04T11:44:01.309Z,11.83
2022-11-04T11:45:01.442Z,11.78
2022-11-04T11:46:01.573Z,11.77
2022-11-04T11:47:01.730Z,11.77
2022-11-04T11:48:01.869Z,11.80
2022-11-04T11:49:01.999Z,11.81
2022-11-04T11:50:02.159Z,11.81
2022-11-04T11:51:02.311Z,11.85
2022-11-04T11:52:02.452Z,11.85
2022-11-04T11:53:02.606Z,11.85
2022-11-04T11:54:02.741Z,11.86
2022-11-04T11:55:02.876Z,11.88
2022-11-04T11:56:03.013Z,11.85
2022-11-04T11:57:22.467Z,11.78
2022-11-04T12:01:09.907Z,11.78
2022-11-04T12:02:04.705Z,11.80
2022-11-04T12:03:03.925Z,11.80
2022-11-04T12:06:20.634Z,11.78
2022-11-04T12:09:23.332Z,11.78
2022-11-04T12:10:10.012Z,11.77
2022-11-04T12:11:05.767Z,11.76
2022-11-04T12:12:04.923Z,11.77
2022-11-04T12:13:05.060Z,11.77
2022-11-04T12:14:05.257Z,11.78
2022-11-04T12:15:05.400Z,11.80
2022-11-04T12:16:05.528Z,11.77
2022-11-04T12:17:05.673Z,11.73
2022-11-04T12:18:05.836Z,11.73
2022-11-04T12:19:05.959Z,11.74
2022-11-04T12:20:11.729Z,11.73
2022-11-04T12:21:07.208Z,11.77
2022-11-04T12:22:06.349Z,11.77
2022-11-04T12:23:06.730Z,11.74
2022-11-04T12:24:06.623Z,11.71
2022-11-04T12:25:06.773Z,11.65
2022-11-04T12:26:06.934Z,11.65
2022-11-04T12:27:07.073Z,11.70
2022-11-04T12:28:07.592Z,11.71
2022-11-04T12:29:07.293Z,11.73
2022-11-04T12:30:07.407Z,11.71
2022-11-04T12:31:07.542Z,11.73
2022-11-04T12:32:07.681Z,11.71
2022-11-04T12:33:08.191Z,11.71
2022-11-04T12:34:07.932Z,11.70
2022-11-04T12:35:08.069Z,11.71
2022-11-04T12:36:08.217Z,11.70
2022-11-04T12:37:08.345Z,11.67
2022-11-04T12:38:08.491Z,11.67
2022-11-04T12:39:08.622Z,11.65
2022-11-04T12:40:08.764Z,11.65
2022-11-04T12:41:34.625Z,11.63
2022-11-04T12:42:31.328Z,11.63
2022-11-04T12:43:10.370Z,11.62
2022-11-04T12:44:09.254Z,11.63
2022-11-04T12:45:09.378Z,11.60
2022-11-04T12:46:09.520Z,11.60
2022-11-04T12:47:09.650Z,11.56
2022-11-04T12:48:09.818Z,11.59
2022-11-04T12:49:09.966Z,11.59
2022-11-04T12:50:10.100Z,11.59
2022-11-04T12:51:10.240Z,11.62
2022-11-04T12:52:10.399Z,11.60
2022-11-04T12:53:10.777Z,11.60
2022-11-04T12:54:10.700Z,11.58
2022-11-04T12:55:10.831Z,11.56
2022-11-04T12:56:10.977Z,11.58
2022-11-04T12:57:11.117Z,11.60
2022-11-04T12:58:11.279Z,11.63
2022-11-04T12:59:11.480Z,11.65
2022-11-04T13:00:11.534Z,11.65
2022-11-04T13:01:15.328Z,11.67
2022-11-04T13:02:11.921Z,11.68
2022-11-04T13:03:12.255Z,11.70
2022-11-04T13:04:12.044Z,11.70
2022-11-04T13:05:19.700Z,11.68
2022-11-04T13:06:12.378Z,11.67
2022-11-04T13:07:12.510Z,11.63
2022-11-04T13:08:14.361Z,11.62
2022-11-04T13:09:12.781Z,11.59
2022-11-04T13:10:12.935Z,11.59
2022-11-04T13:11:13.081Z,11.59
2022-11-04T13:12:13.256Z,11.58
2022-11-04T13:13:13.319Z,11.56
2022-11-04T13:14:13.479Z,11.58
2022-11-04T13:15:13.637Z,11.56
2022-11-04T13:16:13.777Z,11.56